sensor_id;sensor_type;location;lat;lon;timestamp;temperature;humidity
10312;DHT22;5201;48.776;9.128;2023-02-18T00:01:57;12.00;99.90
10312;DHT22;5201;48.776;9.128;2023-02-18T00:04:23;12.00;99.90
10312;DHT22;5201;48.776;9.128;2023-02-18T00:06:50;12.00;99.90
10312;DHT22;5201;48.776;9.128;2023-02-18T00:09:15;12.10;99.90
10312;DHT22;5201;48.776;9.128;2023-02-18T00:11:41;12.50;99.90
10312;DHT22;5201;48.776;9.128;2023-02-18T00:14:11;11.90;99.90
10312;DHT22;5201;48.776;9.128;2023-02-18T00:16:37;12.60;99.90
10312;DHT22;5201;48.776;9.128;2023-02-18T00:19:05;12.10;99.90
10312;DHT22;5201;48.776;9.128;2023-02-18T00:21:34;12.90;99.90
10312;DHT22;5201;48.776;9.128;2023-02-18T00:24:01;11.90;99.90
10312;DHT22;5201;48.776;9.128;2023-02-18T00:26:26;11.80;99.90
10312;DHT22;5201;48.776;9.128;2023-02-18T00:28:52;11.90;99.90
10312;DHT22;5201;48.776;9.128;2023-02-18T00:31:21;12.40;99.90
10312;DHT22;5201;48.776;9.128;2023-02-18T00:33:47;12.50;99.90
10312;DHT22;5201;48.776;9.128;2023-02-18T00:36:14;12.00;99.90
10312;DHT22;5201;48.776;9.128;2023-02-18T00:38:49;12.00;99.90
10312;DHT22;5201;48.776;9.128;2023-02-18T00:41:15;12.20;99.90
10312;DHT22;5201;48.776;9.128;2023-02-18T00:43:42;12.20;99.90
10312;DHT22;5201;48.776;9.128;2023-02-18T00:46:07;12.10;99.90
10312;DHT22;5201;48.776;9.128;2023-02-18T00:48:34;12.20;99.90
10312;DHT22;5201;48.776;9.128;2023-02-18T00:51:00;12.20;99.90
10312;DHT22;5201;48.776;9.128;2023-02-18T00:53:27;12.10;99.90
10312;DHT22;5201;48.776;9.128;2023-02-18T00:55:52;12.70;99.90
10312;DHT22;5201;48.776;9.128;2023-02-18T00:58:18;12.10;99.90
10312;DHT22;5201;48.776;9.128;2023-02-18T01:00:44;12.10;99.90
10312;DHT22;5201;48.776;9.128;2023-02-18T01:03:10;12.10;99.90
10312;DHT22;5201;48.776;9.128;2023-02-18T01:05:37;12.10;99.90
10312;DHT22;5201;48.776;9.128;2023-02-18T01:08:04;12.10;99.90
10312;DHT22;5201;48.776;9.128;2023-02-18T01:10:29;12.10;99.90
10312;DHT22;5201;48.776;9.128;2023-02-18T01:12:55;12.10;99.90
10312;DHT22;5201;48.776;9.128;2023-02-18T01:15:21;12.00;99.90
10312;DHT22;5201;48.776;9.128;2023-02-18T01:17:47;11.90;99.90
10312;DHT22;5201;48.776;9.128;2023-02-18T01:20:14;11.80;99.90
10312;DHT22;5201;48.776;9.128;2023-02-18T01:22:40;11.80;99.90
10312;DHT22;5201;48.776;9.128;2023-02-18T01:25:07;11.70;99.90
10312;DHT22;5201;48.776;9.128;2023-02-18T01:27:33;11.70;99.90
10312;DHT22;5201;48.776;9.128;2023-02-18T01:29:58;11.70;99.90
10312;DHT22;5201;48.776;9.128;2023-02-18T01:32:24;11.70;99.90
10312;DHT22;5201;48.776;9.128;2023-02-18T01:34:49;11.60;99.90
10312;DHT22;5201;48.776;9.128;2023-02-18T01:37:15;11.60;99.90
10312;DHT22;5201;48.776;9.128;2023-02-18T01:39:41;12.10;99.90
10312;DHT22;5201;48.776;9.128;2023-02-18T01:42:11;11.60;99.90
10312;DHT22;5201;48.776;9.128;2023-02-18T01:44:40;11.90;99.90
10312;DHT22;5201;48.776;9.128;2023-02-18T01:47:06;11.60;99.90
10312;DHT22;5201;48.776;9.128;2023-02-18T01:49:33;11.90;99.90
10312;DHT22;5201;48.776;9.128;2023-02-18T01:52:09;11.50;99.90
10312;DHT22;5201;48.776;9.128;2023-02-18T01:54:40;11.50;99.90
10312;DHT22;5201;48.776;9.128;2023-02-18T01:57:10;11.50;99.90
10312;DHT22;5201;48.776;9.128;2023-02-18T01:59:39;11.50;99.90
10312;DHT22;5201;48.776;9.128;2023-02-18T02:02:10;11.40;99.90
10312;DHT22;5201;48.776;9.128;2023-02-18T02:04:37;11.30;99.90
10312;DHT22;5201;48.776;9.128;2023-02-18T02:07:02;11.30;99.90
10312;DHT22;5201;48.776;9.128;2023-02-18T02:09:30;11.40;99.90
10312;DHT22;5201;48.776;9.128;2023-02-18T02:17:33;11.30;99.90
10312;DHT22;5201;48.776;9.128;2023-02-18T02:37:30;11.40;99.90
10312;DHT22;5201;48.776;9.128;2023-02-18T02:40:22;11.40;99.90
10312;DHT22;5201;48.776;9.128;2023-02-18T02:46:01;11.50;99.90
10312;DHT22;5201;48.776;9.128;2023-02-18T02:48:36;11.50;99.90
10312;DHT22;5201;48.776;9.128;2023-02-18T02:51:17;11.40;99.90
10312;DHT22;5201;48.776;9.128;2023-02-18T02:53:44;11.40;99.90
10312;DHT22;5201;48.776;9.128;2023-02-18T02:56:14;11.40;99.90
10312;DHT22;5201;48.776;9.128;2023-02-18T02:58:41;11.50;99.90
10312;DHT22;5201;48.776;9.128;2023-02-18T03:01:47;11.50;99.90
10312;DHT22;5201;48.776;9.128;2023-02-18T03:07:06;11.60;99.90
10312;DHT22;5201;48.776;9.128;2023-02-18T03:15:48;11.60;99.90
10312;DHT22;5201;48.776;9.128;2023-02-18T03:18:22;11.70;99.90
10312;DHT22;5201;48.776;9.128;2023-02-18T03:21:09;11.70;99.90
10312;DHT22;5201;48.776;9.128;2023-02-18T03:23:57;11.60;99.90
10312;DHT22;5201;48.776;9.128;2023-02-18T03:26:24;11.40;99.90
10312;DHT22;5201;48.776;9.128;2023-02-18T03:28:54;11.80;99.90
10312;DHT22;5201;48.776;9.128;2023-02-18T03:31:24;11.20;99.90
10312;DHT22;5201;48.776;9.128;2023-02-18T03:33:56;11.20;99.90
10312;DHT22;5201;48.776;9.128;2023-02-18T03:36:23;11.20;99.90
10312;DHT22;5201;48.776;9.128;2023-02-18T03:38:53;11.20;99.90
10312;DHT22;5201;48.776;9.128;2023-02-18T03:41:21;11.30;99.90
10312;DHT22;5201;48.776;9.128;2023-02-18T03:43:57;11.20;99.90
10312;DHT22;5201;48.776;9.128;2023-02-18T03:46:28;11.30;99.90
10312;DHT22;5201;48.776;9.128;2023-02-18T03:48:54;11.20;99.90
10312;DHT22;5201;48.776;9.128;2023-02-18T03:51:20;11.00;99.90
10312;DHT22;5201;48.776;9.128;2023-02-18T03:53:46;10.80;99.90
10312;DHT22;5201;48.776;9.128;2023-02-18T03:56:13;10.80;99.90
10312;DHT22;5201;48.776;9.128;2023-02-18T03:58:38;10.80;99.90
10312;DHT22;5201;48.776;9.128;2023-02-18T04:01:05;10.80;99.90
10312;DHT22;5201;48.776;9.128;2023-02-18T04:03:30;10.80;99.90
10312;DHT22;5201;48.776;9.128;2023-02-18T04:05:56;10.90;99.90
10312;DHT22;5201;48.776;9.128;2023-02-18T04:08:22;11.10;99.90
10312;DHT22;5201;48.776;9.128;2023-02-18T04:10:47;10.80;99.90
10312;DHT22;5201;48.776;9.128;2023-02-18T04:13:14;10.90;99.90
10312;DHT22;5201;48.776;9.128;2023-02-18T04:15:42;11.70;99.90
10312;DHT22;5201;48.776;9.128;2023-02-18T04:18:07;11.00;99.90
10312;DHT22;5201;48.776;9.128;2023-02-18T04:20:33;10.90;99.90
10312;DHT22;5201;48.776;9.128;2023-02-18T04:22:59;11.10;99.90
10312;DHT22;5201;48.776;9.128;2023-02-18T04:25:24;11.10;99.90
10312;DHT22;5201;48.776;9.128;2023-02-18T04:27:50;11.10;99.90
10312;DHT22;5201;48.776;9.128;2023-02-18T04:30:15;11.10;99.90
10312;DHT22;5201;48.776;9.128;2023-02-18T04:32:41;11.10;99.90
10312;DHT22;5201;48.776;9.128;2023-02-18T04:35:07;12.20;99.90
10312;DHT22;5201;48.776;9.128;2023-02-18T04:37:32;11.00;99.90
10312;DHT22;5201;48.776;9.128;2023-02-18T04:39:58;11.10;99.90
10312;DHT22;5201;48.776;9.128;2023-02-18T04:42:23;11.50;99.90
10312;DHT22;5201;48.776;9.128;2023-02-18T04:44:49;11.00;99.90
10312;DHT22;5201;48.776;9.128;2023-02-18T04:47:15;11.50;99.90
10312;DHT22;5201;48.776;9.128;2023-02-18T04:49:40;12.00;99.90
10312;DHT22;5201;48.776;9.128;2023-02-18T04:52:06;11.00;99.90
10312;DHT22;5201;48.776;9.128;2023-02-18T04:54:31;10.90;99.90
10312;DHT22;5201;48.776;9.128;2023-02-18T04:56:57;11.80;99.90
10312;DHT22;5201;48.776;9.128;2023-02-18T04:59:23;11.00;99.90
10312;DHT22;5201;48.776;9.128;2023-02-18T05:01:48;11.00;99.90
10312;DHT22;5201;48.776;9.128;2023-02-18T05:04:14;10.90;99.90
10312;DHT22;5201;48.776;9.128;2023-02-18T05:06:42;10.90;99.90
10312;DHT22;5201;48.776;9.128;2023-02-18T05:09:08;10.80;99.90
10312;DHT22;5201;48.776;9.128;2023-02-18T05:11:34;10.80;99.90
10312;DHT22;5201;48.776;9.128;2023-02-18T05:14:00;10.80;99.90
10312;DHT22;5201;48.776;9.128;2023-02-18T05:16:25;10.80;99.90
10312;DHT22;5201;48.776;9.128;2023-02-18T05:18:51;10.80;99.90
10312;DHT22;5201;48.776;9.128;2023-02-18T05:21:17;10.80;99.90
10312;DHT22;5201;48.776;9.128;2023-02-18T05:23:42;10.80;99.90
10312;DHT22;5201;48.776;9.128;2023-02-18T05:26:08;10.80;99.90
10312;DHT22;5201;48.776;9.128;2023-02-18T05:28:33;10.80;99.90
10312;DHT22;5201;48.776;9.128;2023-02-18T05:30:59;10.80;99.90
10312;DHT22;5201;48.776;9.128;2023-02-18T05:33:25;10.70;99.90
10312;DHT22;5201;48.776;9.128;2023-02-18T05:35:50;10.60;99.90
10312;DHT22;5201;48.776;9.128;2023-02-18T05:38:16;10.90;99.90
10312;DHT22;5201;48.776;9.128;2023-02-18T05:40:41;10.70;99.90
10312;DHT22;5201;48.776;9.128;2023-02-18T05:43:07;10.60;99.90
10312;DHT22;5201;48.776;9.128;2023-02-18T05:45:33;12.20;99.90
10312;DHT22;5201;48.776;9.128;2023-02-18T05:47:58;10.80;99.90
10312;DHT22;5201;48.776;9.128;2023-02-18T05:50:24;10.80;99.90
10312;DHT22;5201;48.776;9.128;2023-02-18T05:52:49;10.80;99.90
10312;DHT22;5201;48.776;9.128;2023-02-18T05:55:15;10.70;99.90
10312;DHT22;5201;48.776;9.128;2023-02-18T05:57:41;10.80;99.90
10312;DHT22;5201;48.776;9.128;2023-02-18T06:00:07;10.90;99.90
10312;DHT22;5201;48.776;9.128;2023-02-18T06:02:34;11.00;99.90
10312;DHT22;5201;48.776;9.128;2023-02-18T06:05:00;12.00;99.90
10312;DHT22;5201;48.776;9.128;2023-02-18T06:07:26;12.70;99.90
10312;DHT22;5201;48.776;9.128;2023-02-18T06:09:51;11.00;99.90
10312;DHT22;5201;48.776;9.128;2023-02-18T06:12:18;12.50;99.90
10312;DHT22;5201;48.776;9.128;2023-02-18T06:14:44;11.00;99.90
10312;DHT22;5201;48.776;9.128;2023-02-18T06:17:11;10.90;99.90
10312;DHT22;5201;48.776;9.128;2023-02-18T06:19:37;10.90;99.90
10312;DHT22;5201;48.776;9.128;2023-02-18T06:22:03;11.40;99.90
10312;DHT22;5201;48.776;9.128;2023-02-18T06:24:29;10.90;99.90
10312;DHT22;5201;48.776;9.128;2023-02-18T06:26:54;10.90;99.90
10312;DHT22;5201;48.776;9.128;2023-02-18T06:29:20;10.80;99.90
10312;DHT22;5201;48.776;9.128;2023-02-18T06:31:46;10.80;99.90
10312;DHT22;5201;48.776;9.128;2023-02-18T06:34:11;11.50;99.90
10312;DHT22;5201;48.776;9.128;2023-02-18T06:36:37;11.80;99.90
10312;DHT22;5201;48.776;9.128;2023-02-18T06:39:03;10.90;99.90
10312;DHT22;5201;48.776;9.128;2023-02-18T06:41:29;10.90;99.90
10312;DHT22;5201;48.776;9.128;2023-02-18T06:43:55;10.90;99.90
10312;DHT22;5201;48.776;9.128;2023-02-18T06:46:21;11.00;99.90
10312;DHT22;5201;48.776;9.128;2023-02-18T06:48:46;11.00;99.90
10312;DHT22;5201;48.776;9.128;2023-02-18T06:51:12;11.00;99.90
10312;DHT22;5201;48.776;9.128;2023-02-18T06:53:38;11.10;99.90
10312;DHT22;5201;48.776;9.128;2023-02-18T06:56:04;11.10;99.90
10312;DHT22;5201;48.776;9.128;2023-02-18T06:58:30;11.10;99.90
10312;DHT22;5201;48.776;9.128;2023-02-18T07:00:55;11.10;99.90
10312;DHT22;5201;48.776;9.128;2023-02-18T07:03:21;11.10;99.90
10312;DHT22;5201;48.776;9.128;2023-02-18T07:05:46;12.30;99.90
10312;DHT22;5201;48.776;9.128;2023-02-18T07:08:12;11.10;99.90
10312;DHT22;5201;48.776;9.128;2023-02-18T07:10:38;12.10;99.90
10312;DHT22;5201;48.776;9.128;2023-02-18T07:13:04;11.20;99.90
10312;DHT22;5201;48.776;9.128;2023-02-18T07:15:29;11.20;99.90
10312;DHT22;5201;48.776;9.128;2023-02-18T07:17:55;11.80;99.90
10312;DHT22;5201;48.776;9.128;2023-02-18T07:20:21;11.20;99.90
10312;DHT22;5201;48.776;9.128;2023-02-18T07:22:47;11.20;99.90
10312;DHT22;5201;48.776;9.128;2023-02-18T07:25:13;11.20;99.90
10312;DHT22;5201;48.776;9.128;2023-02-18T07:27:39;11.20;99.90
10312;DHT22;5201;48.776;9.128;2023-02-18T07:30:05;11.20;99.90
10312;DHT22;5201;48.776;9.128;2023-02-18T07:32:31;11.20;99.90
10312;DHT22;5201;48.776;9.128;2023-02-18T07:34:57;11.30;99.90
10312;DHT22;5201;48.776;9.128;2023-02-18T07:37:22;11.30;99.90
10312;DHT22;5201;48.776;9.128;2023-02-18T07:39:48;11.40;99.90
10312;DHT22;5201;48.776;9.128;2023-02-18T07:42:14;11.30;99.90
10312;DHT22;5201;48.776;9.128;2023-02-18T07:44:40;11.40;99.90
10312;DHT22;5201;48.776;9.128;2023-02-18T07:47:07;11.30;99.90
10312;DHT22;5201;48.776;9.128;2023-02-18T07:49:34;11.40;99.90
10312;DHT22;5201;48.776;9.128;2023-02-18T07:52:00;11.50;99.90
10312;DHT22;5201;48.776;9.128;2023-02-18T07:54:25;11.40;99.90
10312;DHT22;5201;48.776;9.128;2023-02-18T07:56:51;11.40;99.90
10312;DHT22;5201;48.776;9.128;2023-02-18T07:59:17;11.50;99.90
10312;DHT22;5201;48.776;9.128;2023-02-18T08:01:43;11.50;99.90
10312;DHT22;5201;48.776;9.128;2023-02-18T08:04:08;11.60;99.90
10312;DHT22;5201;48.776;9.128;2023-02-18T08:06:37;11.70;99.90
10312;DHT22;5201;48.776;9.128;2023-02-18T08:09:03;11.80;99.90
10312;DHT22;5201;48.776;9.128;2023-02-18T08:11:29;12.10;99.90
10312;DHT22;5201;48.776;9.128;2023-02-18T08:13:55;12.10;99.90
10312;DHT22;5201;48.776;9.128;2023-02-18T08:16:21;12.00;99.90
10312;DHT22;5201;48.776;9.128;2023-02-18T08:18:48;12.70;99.90
10312;DHT22;5201;48.776;9.128;2023-02-18T08:21:14;12.10;99.90
10312;DHT22;5201;48.776;9.128;2023-02-18T08:23:40;12.20;99.90
10312;DHT22;5201;48.776;9.128;2023-02-18T08:26:06;12.40;99.90
10312;DHT22;5201;48.776;9.128;2023-02-18T08:28:32;12.40;99.90
10312;DHT22;5201;48.776;9.128;2023-02-18T08:30:58;12.30;99.90
10312;DHT22;5201;48.776;9.128;2023-02-18T08:33:23;12.80;99.90
10312;DHT22;5201;48.776;9.128;2023-02-18T08:35:51;12.30;99.90
10312;DHT22;5201;48.776;9.128;2023-02-18T08:38:17;12.60;99.90
10312;DHT22;5201;48.776;9.128;2023-02-18T08:40:43;12.50;99.90
10312;DHT22;5201;48.776;9.128;2023-02-18T08:43:09;12.60;99.90
10312;DHT22;5201;48.776;9.128;2023-02-18T08:45:36;12.60;99.90
10312;DHT22;5201;48.776;9.128;2023-02-18T08:48:03;12.60;99.90
10312;DHT22;5201;48.776;9.128;2023-02-18T08:50:29;13.20;99.90
10312;DHT22;5201;48.776;9.128;2023-02-18T08:52:56;13.10;99.90
10312;DHT22;5201;48.776;9.128;2023-02-18T08:55:22;12.70;99.90
10312;DHT22;5201;48.776;9.128;2023-02-18T08:57:49;12.70;99.90
10312;DHT22;5201;48.776;9.128;2023-02-18T09:00:15;12.70;99.90
10312;DHT22;5201;48.776;9.128;2023-02-18T09:02:42;12.70;99.90
10312;DHT22;5201;48.776;9.128;2023-02-18T09:05:08;12.80;99.90
10312;DHT22;5201;48.776;9.128;2023-02-18T09:07:34;12.80;99.90
10312;DHT22;5201;48.776;9.128;2023-02-18T09:10:00;12.80;99.90
10312;DHT22;5201;48.776;9.128;2023-02-18T09:12:27;12.90;99.90
10312;DHT22;5201;48.776;9.128;2023-02-18T09:14:52;13.00;99.90
10312;DHT22;5201;48.776;9.128;2023-02-18T09:17:18;13.10;99.90
10312;DHT22;5201;48.776;9.128;2023-02-18T09:19:44;13.00;99.90
10312;DHT22;5201;48.776;9.128;2023-02-18T09:22:09;13.70;99.90
10312;DHT22;5201;48.776;9.128;2023-02-18T09:24:37;13.30;99.90
10312;DHT22;5201;48.776;9.128;2023-02-18T09:27:03;13.40;99.90
10312;DHT22;5201;48.776;9.128;2023-02-18T09:29:29;13.60;99.90
10312;DHT22;5201;48.776;9.128;2023-02-18T09:31:54;13.60;99.90
10312;DHT22;5201;48.776;9.128;2023-02-18T09:34:20;13.90;99.90
10312;DHT22;5201;48.776;9.128;2023-02-18T09:36:45;13.60;99.90
10312;DHT22;5201;48.776;9.128;2023-02-18T09:39:11;13.70;99.90
10312;DHT22;5201;48.776;9.128;2023-02-18T09:41:39;13.60;99.90
10312;DHT22;5201;48.776;9.128;2023-02-18T09:46:54;13.80;99.90
10312;DHT22;5201;48.776;9.128;2023-02-18T09:49:29;13.70;99.90
10312;DHT22;5201;48.776;9.128;2023-02-18T09:52:12;13.70;99.90
10312;DHT22;5201;48.776;9.128;2023-02-18T09:54:38;13.80;99.90
10312;DHT22;5201;48.776;9.128;2023-02-18T09:57:05;13.80;99.90
10312;DHT22;5201;48.776;9.128;2023-02-18T09:59:36;13.80;99.90
10312;DHT22;5201;48.776;9.128;2023-02-18T10:02:02;13.70;99.90
10312;DHT22;5201;48.776;9.128;2023-02-18T10:04:33;13.60;99.90
10312;DHT22;5201;48.776;9.128;2023-02-18T10:07:02;13.60;99.90
10312;DHT22;5201;48.776;9.128;2023-02-18T10:09:33;13.60;99.90
10312;DHT22;5201;48.776;9.128;2023-02-18T10:12:14;13.70;99.90
10312;DHT22;5201;48.776;9.128;2023-02-18T10:14:50;13.90;99.90
10312;DHT22;5201;48.776;9.128;2023-02-18T10:17:16;13.90;99.90
10312;DHT22;5201;48.776;9.128;2023-02-18T10:19:45;13.80;99.90
10312;DHT22;5201;48.776;9.128;2023-02-18T10:22:13;13.70;99.90
10312;DHT22;5201;48.776;9.128;2023-02-18T10:25:01;13.80;99.90
10312;DHT22;5201;48.776;9.128;2023-02-18T10:27:34;14.00;99.90
10312;DHT22;5201;48.776;9.128;2023-02-18T10:30:30;14.20;99.90
10312;DHT22;5201;48.776;9.128;2023-02-18T10:36:06;14.50;99.90
10312;DHT22;5201;48.776;9.128;2023-02-18T10:38:53;14.60;99.90
10312;DHT22;5201;48.776;9.128;2023-02-18T10:41:33;14.40;99.90
10312;DHT22;5201;48.776;9.128;2023-02-18T10:52:21;14.30;99.90
10312;DHT22;5201;48.776;9.128;2023-02-18T10:54:58;14.30;99.90
10312;DHT22;5201;48.776;9.128;2023-02-18T10:57:25;14.40;99.90
10312;DHT22;5201;48.776;9.128;2023-02-18T10:59:57;14.50;99.90
10312;DHT22;5201;48.776;9.128;2023-02-18T11:02:26;14.60;99.90
10312;DHT22;5201;48.776;9.128;2023-02-18T11:04:56;14.70;99.90
10312;DHT22;5201;48.776;9.128;2023-02-18T11:07:27;14.80;99.90
10312;DHT22;5201;48.776;9.128;2023-02-18T11:10:12;15.00;99.90
10312;DHT22;5201;48.776;9.128;2023-02-18T11:12:44;14.90;99.90
10312;DHT22;5201;48.776;9.128;2023-02-18T11:17:40;15.10;99.90
10312;DHT22;5201;48.776;9.128;2023-02-18T11:20:32;15.00;99.90
10312;DHT22;5201;48.776;9.128;2023-02-18T11:25:39;15.00;99.90
10312;DHT22;5201;48.776;9.128;2023-02-18T11:30:39;14.90;99.90
10312;DHT22;5201;48.776;9.128;2023-02-18T11:33:08;15.00;99.90
10312;DHT22;5201;48.776;9.128;2023-02-18T11:35:35;15.40;99.90
10312;DHT22;5201;48.776;9.128;2023-02-18T11:38:03;15.00;99.90
10312;DHT22;5201;48.776;9.128;2023-02-18T11:40:41;14.80;99.90
10312;DHT22;5201;48.776;9.128;2023-02-18T11:43:14;14.70;99.90
10312;DHT22;5201;48.776;9.128;2023-02-18T11:45:40;14.70;99.90
10312;DHT22;5201;48.776;9.128;2023-02-18T11:48:26;14.80;99.90
10312;DHT22;5201;48.776;9.128;2023-02-18T11:50:53;15.10;99.90
10312;DHT22;5201;48.776;9.128;2023-02-18T11:53:34;15.10;99.90
10312;DHT22;5201;48.776;9.128;2023-02-18T11:56:16;15.80;99.90
10312;DHT22;5201;48.776;9.128;2023-02-18T11:58:46;15.50;99.90
10312;DHT22;5201;48.776;9.128;2023-02-18T12:01:19;15.40;99.90
10312;DHT22;5201;48.776;9.128;2023-02-18T12:03:57;15.40;99.90
10312;DHT22;5201;48.776;9.128;2023-02-18T12:09:27;15.20;99.90
10312;DHT22;5201;48.776;9.128;2023-02-18T12:12:15;15.30;99.90
10312;DHT22;5201;48.776;9.128;2023-02-18T12:14:43;15.30;99.90
10312;DHT22;5201;48.776;9.128;2023-02-18T12:17:39;15.40;99.90
10312;DHT22;5201;48.776;9.128;2023-02-18T12:25:25;15.40;99.90
10312;DHT22;5201;48.776;9.128;2023-02-18T12:35:51;15.00;99.90
10312;DHT22;5201;48.776;9.128;2023-02-18T12:52:14;15.00;99.90
10312;DHT22;5201;48.776;9.128;2023-02-18T12:57:51;14.80;99.90
10312;DHT22;5201;48.776;9.128;2023-02-18T13:13:23;14.60;99.90
10312;DHT22;5201;48.776;9.128;2023-02-18T13:16:03;15.50;99.90
10312;DHT22;5201;48.776;9.128;2023-02-18T13:18:57;14.80;99.90
10312;DHT22;5201;48.776;9.128;2023-02-18T13:21:24;14.60;99.90
10312;DHT22;5201;48.776;9.128;2023-02-18T13:24:02;14.60;99.90
10312;DHT22;5201;48.776;9.128;2023-02-18T13:26:31;14.50;99.90
10312;DHT22;5201;48.776;9.128;2023-02-18T13:31:51;14.50;99.90
10312;DHT22;5201;48.776;9.128;2023-02-18T13:34:31;14.40;99.90
10312;DHT22;5201;48.776;9.128;2023-02-18T13:39:48;14.30;99.90
10312;DHT22;5201;48.776;9.128;2023-02-18T13:47:42;15.00;99.90
10312;DHT22;5201;48.776;9.128;2023-02-18T13:50:27;14.40;99.90
10312;DHT22;5201;48.776;9.128;2023-02-18T13:53:20;14.50;99.90
10312;DHT22;5201;48.776;9.128;2023-02-18T13:55:59;14.50;99.90
10312;DHT22;5201;48.776;9.128;2023-02-18T13:58:33;14.50;99.90
10312;DHT22;5201;48.776;9.128;2023-02-18T14:03:49;14.50;99.90
10312;DHT22;5201;48.776;9.128;2023-02-18T14:06:33;14.50;99.90
10312;DHT22;5201;48.776;9.128;2023-02-18T14:11:41;14.40;99.90
10312;DHT22;5201;48.776;9.128;2023-02-18T14:27:33;14.40;99.90
10312;DHT22;5201;48.776;9.128;2023-02-18T14:32:38;14.60;99.90
10312;DHT22;5201;48.776;9.128;2023-02-18T14:35:12;14.60;99.90
10312;DHT22;5201;48.776;9.128;2023-02-18T14:51:47;14.50;99.90
10312;DHT22;5201;48.776;9.128;2023-02-18T14:54:17;14.90;99.90
10312;DHT22;5201;48.776;9.128;2023-02-18T14:56:55;17.30;99.90
10312;DHT22;5201;48.776;9.128;2023-02-18T14:59:21;14.50;99.90
10312;DHT22;5201;48.776;9.128;2023-02-18T15:01:48;14.50;99.90
10312;DHT22;5201;48.776;9.128;2023-02-18T15:04:14;14.40;99.90
10312;DHT22;5201;48.776;9.128;2023-02-18T15:06:40;14.40;99.90
10312;DHT22;5201;48.776;9.128;2023-02-18T15:09:18;14.30;99.90
10312;DHT22;5201;48.776;9.128;2023-02-18T15:11:51;14.40;99.90
10312;DHT22;5201;48.776;9.128;2023-02-18T15:14:21;14.50;99.90
10312;DHT22;5201;48.776;9.128;2023-02-18T15:16:48;14.50;99.90
10312;DHT22;5201;48.776;9.128;2023-02-18T15:19:16;14.50;99.90
10312;DHT22;5201;48.776;9.128;2023-02-18T15:21:45;14.50;99.90
10312;DHT22;5201;48.776;9.128;2023-02-18T15:26:45;14.40;99.90
10312;DHT22;5201;48.776;9.128;2023-02-18T15:29:25;14.30;99.90
10312;DHT22;5201;48.776;9.128;2023-02-18T15:31:52;14.30;99.90
10312;DHT22;5201;48.776;9.128;2023-02-18T15:34:37;14.30;99.90
10312;DHT22;5201;48.776;9.128;2023-02-18T15:37:05;14.30;99.90
10312;DHT22;5201;48.776;9.128;2023-02-18T15:39:32;14.30;99.90
10312;DHT22;5201;48.776;9.128;2023-02-18T15:42:01;14.20;99.90
10312;DHT22;5201;48.776;9.128;2023-02-18T15:44:31;14.20;99.90
10312;DHT22;5201;48.776;9.128;2023-02-18T15:47:04;14.10;99.90
10312;DHT22;5201;48.776;9.128;2023-02-18T15:49:33;14.10;99.90
10312;DHT22;5201;48.776;9.128;2023-02-18T15:52:01;14.00;99.90
10312;DHT22;5201;48.776;9.128;2023-02-18T15:54:27;14.00;99.90
10312;DHT22;5201;48.776;9.128;2023-02-18T15:56:55;13.90;99.90
10312;DHT22;5201;48.776;9.128;2023-02-18T15:59:45;14.10;99.90
10312;DHT22;5201;48.776;9.128;2023-02-18T16:02:18;13.90;99.90
10312;DHT22;5201;48.776;9.128;2023-02-18T16:04:49;13.90;99.90
10312;DHT22;5201;48.776;9.128;2023-02-18T16:07:22;13.90;99.90
10312;DHT22;5201;48.776;9.128;2023-02-18T16:09:48;13.80;99.90
10312;DHT22;5201;48.776;9.128;2023-02-18T16:12:27;13.70;99.90
10312;DHT22;5201;48.776;9.128;2023-02-18T16:14:54;13.50;99.90
10312;DHT22;5201;48.776;9.128;2023-02-18T16:17:23;13.80;99.90
10312;DHT22;5201;48.776;9.128;2023-02-18T16:19:55;13.60;99.90
10312;DHT22;5201;48.776;9.128;2023-02-18T16:22:46;14.00;99.90
10312;DHT22;5201;48.776;9.128;2023-02-18T16:25:26;13.50;99.90
10312;DHT22;5201;48.776;9.128;2023-02-18T16:30:27;13.30;99.90
10312;DHT22;5201;48.776;9.128;2023-02-18T16:32:55;13.30;99.90
10312;DHT22;5201;48.776;9.128;2023-02-18T16:35:23;13.30;99.90
10312;DHT22;5201;48.776;9.128;2023-02-18T16:37:49;13.20;99.90
10312;DHT22;5201;48.776;9.128;2023-02-18T16:40:21;13.00;99.90
10312;DHT22;5201;48.776;9.128;2023-02-18T16:42:47;13.00;99.90
10312;DHT22;5201;48.776;9.128;2023-02-18T16:45:12;14.80;99.90
10312;DHT22;5201;48.776;9.128;2023-02-18T16:47:46;13.00;99.90
10312;DHT22;5201;48.776;9.128;2023-02-18T16:50:20;13.00;99.90
10312;DHT22;5201;48.776;9.128;2023-02-18T16:52:47;13.50;99.90
10312;DHT22;5201;48.776;9.128;2023-02-18T16:55:22;12.90;99.90
10312;DHT22;5201;48.776;9.128;2023-02-18T16:57:48;13.00;99.90
10312;DHT22;5201;48.776;9.128;2023-02-18T17:00:16;13.20;99.90
10312;DHT22;5201;48.776;9.128;2023-02-18T17:02:46;12.80;99.90
10312;DHT22;5201;48.776;9.128;2023-02-18T17:05:21;12.90;99.90
10312;DHT22;5201;48.776;9.128;2023-02-18T17:07:47;13.00;99.90
10312;DHT22;5201;48.776;9.128;2023-02-18T17:10:13;13.00;99.90
10312;DHT22;5201;48.776;9.128;2023-02-18T17:12:39;13.00;99.90
10312;DHT22;5201;48.776;9.128;2023-02-18T17:15:29;13.10;99.90
10312;DHT22;5201;48.776;9.128;2023-02-18T17:17:55;13.10;99.90
10312;DHT22;5201;48.776;9.128;2023-02-18T17:20:24;13.10;99.90
10312;DHT22;5201;48.776;9.128;2023-02-18T17:22:50;13.10;99.90
10312;DHT22;5201;48.776;9.128;2023-02-18T17:25:28;13.20;99.90
10312;DHT22;5201;48.776;9.128;2023-02-18T17:27:55;13.00;99.90
10312;DHT22;5201;48.776;9.128;2023-02-18T17:30:21;13.10;99.90
10312;DHT22;5201;48.776;9.128;2023-02-18T17:32:47;13.10;99.90
10312;DHT22;5201;48.776;9.128;2023-02-18T17:35:22;13.00;99.90
10312;DHT22;5201;48.776;9.128;2023-02-18T17:37:48;12.90;99.90
10312;DHT22;5201;48.776;9.128;2023-02-18T17:40:26;12.90;99.90
10312;DHT22;5201;48.776;9.128;2023-02-18T17:42:53;13.50;99.90
10312;DHT22;5201;48.776;9.128;2023-02-18T17:45:26;12.90;99.90
10312;DHT22;5201;48.776;9.128;2023-02-18T17:47:57;12.90;99.90
10312;DHT22;5201;48.776;9.128;2023-02-18T17:50:23;13.40;99.90
10312;DHT22;5201;48.776;9.128;2023-02-18T17:52:49;12.90;99.90
10312;DHT22;5201;48.776;9.128;2023-02-18T17:55:34;12.90;99.90
10312;DHT22;5201;48.776;9.128;2023-02-18T17:58:00;12.80;99.90
10312;DHT22;5201;48.776;9.128;2023-02-18T18:00:32;12.90;99.90
10312;DHT22;5201;48.776;9.128;2023-02-18T18:02:59;13.40;99.90
10312;DHT22;5201;48.776;9.128;2023-02-18T18:05:31;12.70;99.90
10312;DHT22;5201;48.776;9.128;2023-02-18T18:07:58;12.80;99.90
10312;DHT22;5201;48.776;9.128;2023-02-18T18:10:27;12.80;99.90
10312;DHT22;5201;48.776;9.128;2023-02-18T18:12:59;12.80;99.90
10312;DHT22;5201;48.776;9.128;2023-02-18T18:15:27;12.80;99.90
10312;DHT22;5201;48.776;9.128;2023-02-18T18:17:53;12.80;99.90
10312;DHT22;5201;48.776;9.128;2023-02-18T18:20:20;12.70;99.90
10312;DHT22;5201;48.776;9.128;2023-02-18T18:22:46;12.80;99.90
10312;DHT22;5201;48.776;9.128;2023-02-18T18:25:37;13.20;99.90
10312;DHT22;5201;48.776;9.128;2023-02-18T18:28:02;12.70;99.90
10312;DHT22;5201;48.776;9.128;2023-02-18T18:30:30;11.70;99.90
10312;DHT22;5201;48.776;9.128;2023-02-18T18:32:56;13.10;99.90